Time;durP1;ratioP1;P1;durP2;ratioP2;P2;SDS_P1;SDS_P2;PMS_P1;PMS_P2;Temp;Humidity;BMP_temperature;BMP_pressure;BME280_temperature;BME280_humidity;BME280_pressure;Samples;Min_cycle;Max_cycle;Signal;HPM_P1;HPM_P2
2023/09/10 00:00:27;;;;;;;;;26.00;25.50;;;;;23.37;71.36;101734.84;5010552;28;8831;-70
2023/09/10 00:02:53;;;;;;;;;34.25;31.75;;;;;23.35;71.32;101738.97;4984394;28;8886;-70
2023/09/10 00:05:20;;;;;;;;;34.00;32.33;;;;;23.32;71.32;101742.22;5007343;28;8855;-70
2023/09/10 00:07:46;;;;;;;;;32.75;30.75;;;;;23.29;71.43;101737.22;4988404;28;8934;-70
2023/09/10 00:10:13;;;;;;;;;36.33;34.00;;;;;23.26;71.52;101737.75;4990487;28;8902;-70
2023/09/10 00:12:40;;;;;;;;;30.50;29.75;;;;;23.23;71.57;101735.53;4989581;28;8941;-70
2023/09/10 00:15:07;;;;;;;;;36.00;32.33;;;;;23.21;71.89;101744.00;5009752;28;8836;-70
2023/09/10 00:17:34;;;;;;;;;32.00;31.25;;;;;23.18;71.81;101733.56;5007065;28;8935;-70
2023/09/10 00:20:00;;;;;;;;;29.25;29.25;;;;;23.15;72.00;101740.38;5008610;28;8890;-70
2023/09/10 00:22:27;;;;;;;;;31.50;29.25;;;;;23.14;71.96;101741.47;4988701;28;8835;-70
2023/09/10 00:24:53;;;;;;;;;38.00;33.00;;;;;23.11;72.12;101739.22;4992503;28;8909;-71
2023/09/10 00:27:20;;;;;;;;;32.33;32.00;;;;;23.10;72.13;101739.50;4980948;28;9679;-71
2023/09/10 00:29:46;;;;;;;;;30.67;29.67;;;;;23.07;72.39;101740.81;5013444;28;9603;-70
2023/09/10 00:32:13;;;;;;;;;37.67;33.33;;;;;23.05;72.44;101744.91;5012931;28;8984;-70
2023/09/10 00:34:39;;;;;;;;;35.00;34.00;;;;;23.03;72.23;101736.09;4996077;28;8953;-70
2023/09/10 00:37:07;;;;;;;;;36.00;33.00;;;;;23.00;72.46;101742.09;5005077;28;8925;-71
2023/09/10 00:39:34;;;;;;;;;35.25;34.00;;;;;22.98;72.54;101736.06;4993127;28;9816;-71
2023/09/10 00:42:00;;;;;;;;;34.33;31.00;;;;;22.94;72.50;101744.78;5012162;28;8966;-71
2023/09/10 00:44:27;;;;;;;;;31.00;31.00;;;;;22.93;72.66;101736.81;4996365;28;9005;-70
2023/09/10 00:46:56;;;;;;;;;37.00;32.25;;;;;22.91;72.68;101737.06;5013325;28;8824;-72
2023/09/10 00:49:23;;;;;;;;;41.33;34.67;;;;;22.90;73.02;101737.28;5011675;28;8835;-71
2023/09/10 00:51:50;;;;;;;;;34.67;32.67;;;;;22.87;72.76;101730.38;4996428;28;9070;-70
2023/09/10 00:54:17;;;;;;;;;34.00;32.00;;;;;22.87;72.81;101727.63;4993005;28;9047;-69
2023/09/10 00:56:44;;;;;;;;;35.00;34.00;;;;;22.85;72.79;101738.06;4995589;28;8816;-68
2023/09/10 00:59:11;;;;;;;;;35.67;32.67;;;;;22.84;73.01;101732.81;4993145;28;8850;-69
2023/09/10 01:01:38;;;;;;;;;37.67;33.00;;;;;22.82;73.00;101730.31;4990234;28;9090;-69
2023/09/10 01:04:04;;;;;;;;;35.00;33.00;;;;;22.81;73.09;101727.81;5005267;28;9013;-69
2023/09/10 01:06:31;;;;;;;;;31.50;28.75;;;;;22.79;73.21;101722.59;5013298;28;8859;-69
2023/09/10 01:08:58;;;;;;;;;27.50;27.50;;;;;22.80;72.98;101728.91;4995359;28;8867;-70
2023/09/10 01:11:42;;;;;;;;;31.00;31.00;;;;;22.81;73.03;101731.41;4990705;28;8808;-70
2023/09/10 01:14:25;;;;;;;;;28.33;28.33;;;;;22.83;72.99;101729.22;4988777;28;8831;-70
2023/09/10 01:16:54;;;;;;;;;36.33;31.67;;;;;22.83;72.82;101731.16;5008157;28;8948;-70
2023/09/10 01:19:45;;;;;;;;;33.50;32.00;;;;;22.82;72.76;101729.50;4993558;28;8956;-70
2023/09/10 01:22:26;;;;;;;;;37.00;34.67;;;;;22.80;72.86;101737.97;4993873;28;8837;-70
2023/09/10 01:24:55;;;;;;;;;33.33;32.33;;;;;22.77;72.71;101740.38;4978499;28;8942;-70
2023/09/10 01:27:21;;;;;;;;;35.67;34.00;;;;;22.76;73.13;101736.00;4991657;28;8933;-69
2023/09/10 01:29:48;;;;;;;;;36.50;33.25;;;;;22.73;73.18;101731.84;5007066;28;8985;-70
2023/09/10 01:32:23;;;;;;;;;33.50;30.50;;;;;22.70;73.06;101735.94;4995792;28;8839;-69
2023/09/10 01:34:59;;;;;;;;;34.50;29.00;;;;;22.69;73.22;101728.78;4964576;28;8865;-69
2023/09/10 01:37:34;;;;;;;;;37.00;34.67;;;;;22.68;73.41;101729.84;4981997;28;8853;-70
2023/09/10 01:40:05;;;;;;;;;34.67;31.33;;;;;22.67;73.51;101727.38;4988905;28;9018;-70
2023/09/10 01:42:35;;;;;;;;;37.00;34.50;;;;;22.66;73.50;101731.19;5014310;28;8973;-69
2023/09/10 01:45:02;;;;;;;;;34.75;32.25;;;;;22.63;73.67;101731.69;5002546;28;8829;-70
2023/09/10 01:47:28;;;;;;;;;29.67;29.67;;;;;22.61;73.68;101740.19;4988121;28;8851;-70
2023/09/10 01:49:55;;;;;;;;;34.25;30.75;;;;;22.60;73.80;101730.28;5007399;28;8943;-69
2023/09/10 01:52:22;;;;;;;;;33.50;32.75;;;;;22.59;73.75;101734.13;5007751;28;9581;-69
2023/09/10 01:54:49;;;;;;;;;34.00;32.50;;;;;22.58;73.94;101729.72;5004319;28;8833;-70
2023/09/10 01:57:15;;;;;;;;;33.75;31.25;;;;;22.56;73.87;101731.88;5009051;28;8841;-70
2023/09/10 01:59:42;;;;;;;;;32.50;29.50;;;;;22.54;74.18;101734.06;4980548;28;8943;-70
2023/09/10 02:02:08;;;;;;;;;30.75;29.75;;;;;22.55;74.22;101734.88;4992747;28;8843;-69
2023/09/10 02:04:35;;;;;;;;;34.75;31.75;;;;;22.55;74.19;101737.63;5012308;28;8946;-70
2023/09/10 02:07:02;;;;;;;;;31.00;31.00;;;;;22.54;74.18;101734.06;5010600;28;8855;-69
2023/09/10 02:09:28;;;;;;;;;31.33;31.33;;;;;22.54;74.27;101738.72;4995032;28;8851;-70
2023/09/10 02:11:55;;;;;;;;;35.75;34.00;;;;;22.54;74.17;101738.72;5011483;28;8962;-69
2023/09/10 02:14:21;;;;;;;;;40.00;35.33;;;;;22.53;73.99;101732.41;5008288;28;9512;-70
2023/09/10 02:16:48;;;;;;;;;39.00;34.67;;;;;22.53;74.00;101729.66;5008333;28;8917;-70
2023/09/10 02:19:14;;;;;;;;;39.00;37.33;;;;;22.52;73.97;101727.97;4994609;28;9037;-70
2023/09/10 02:21:41;;;;;;;;;35.50;34.00;;;;;22.51;73.86;101726.31;5009105;28;9647;-69
2023/09/10 02:24:08;;;;;;;;;35.00;33.50;;;;;22.52;74.02;101732.63;5012011;28;8954;-69
2023/09/10 02:26:34;;;;;;;;;48.33;38.67;;;;;22.50;73.82;101738.38;5010551;28;8831;-69
2023/09/10 02:29:01;;;;;;;;;38.00;37.00;;;;;22.49;73.87;101736.72;4975113;28;9075;-70
2023/09/10 02:31:28;;;;;;;;;46.67;37.00;;;;;22.49;73.74;101736.72;5011762;28;9254;-70
2023/09/10 02:34:00;;;;;;;;;41.33;36.00;;;;;22.48;73.69;101734.22;4990801;28;9101;-70
2023/09/10 02:36:28;;;;;;;;;46.33;38.00;;;;;22.45;73.49;101741.88;4991384;28;9165;-69
2023/09/10 02:38:54;;;;;;;;;33.50;32.50;;;;;22.45;73.32;101738.31;4991456;28;9060;-70
2023/09/10 02:41:21;;;;;;;;;31.67;31.33;;;;;22.45;73.15;101730.09;5011879;28;8838;-69
2023/09/10 02:43:48;;;;;;;;;37.75;31.25;;;;;22.41;73.21;101726.19;5011828;28;8913;-70
2023/09/10 02:46:14;;;;;;;;;35.25;34.00;;;;;22.41;73.07;101734.41;4989049;28;8965;-69
2023/09/10 02:48:41;;;;;;;;;40.33;36.33;;;;;22.39;72.86;101728.34;4994612;28;8835;-70
2023/09/10 02:51:07;;;;;;;;;37.67;34.33;;;;;22.36;72.87;101715.13;4991479;28;9789;-69
2023/09/10 02:53:34;;;;;;;;;39.00;35.33;;;;;22.36;73.07;101715.13;4993891;28;8982;-70
2023/09/10 02:56:02;;;;;;;;;39.67;37.00;;;;;22.31;73.09;101723.28;4990451;28;9042;-70
2023/09/10 02:58:29;;;;;;;;;31.33;31.00;;;;;22.32;73.21;101724.94;4995648;28;9184;-69
2023/09/10 03:00:55;;;;;;;;;29.75;29.75;;;;;22.31;73.13;101715.88;4993326;28;8935;-69
2023/09/10 03:03:23;;;;;;;;;30.00;28.50;;;;;22.30;73.30;101724.38;4999213;28;8861;-69
2023/09/10 03:05:49;;;;;;;;;33.00;31.00;;;;;22.30;73.19;101727.94;4992925;28;8839;-69
2023/09/10 03:08:16;;;;;;;;;32.00;31.67;;;;;22.29;73.31;101722.72;4989235;28;8837;-69
2023/09/10 03:10:43;;;;;;;;;29.67;28.00;;;;;22.28;73.11;101726.50;5008806;28;8978;-69
2023/09/10 03:13:10;;;;;;;;;36.67;35.00;;;;;22.26;73.03;101725.94;5006624;28;8996;-70
2023/09/10 03:15:36;;;;;;;;;35.67;34.33;;;;;22.23;72.99;101716.31;4994167;28;9310;-69
2023/09/10 03:18:03;;;;;;;;;37.33;33.67;;;;;22.20;73.01;101717.66;4991412;28;9153;-69
2023/09/10 03:20:30;;;;;;;;;36.50;35.00;;;;;22.18;72.87;101716.22;4988636;28;8920;-69
2023/09/10 03:22:59;;;;;;;;;46.50;38.75;;;;;22.16;72.99;101721.13;4990901;28;8824;-70
2023/09/10 03:25:25;;;;;;;;;34.67;34.00;;;;;22.14;73.04;101715.06;5007242;28;9547;-69
2023/09/10 03:27:52;;;;;;;;;38.00;34.67;;;;;22.14;73.19;101718.63;5010161;28;9069;-69
2023/09/10 03:30:19;;;;;;;;;28.00;26.67;;;;;22.14;73.29;101721.38;5009545;28;9098;-69
2023/09/10 03:32:49;;;;;;;;;24.50;24.25;;;;;22.16;73.35;101721.97;5010410;28;8995;-70
2023/09/10 03:35:16;;;;;;;;;25.00;25.00;;;;;22.16;73.29;101718.38;4993771;28;8827;-70
2023/09/10 03:37:42;;;;;;;;;31.67;31.67;;;;;22.14;73.31;101712.31;5008112;28;9087;-70
2023/09/10 03:40:09;;;;;;;;;31.00;27.00;;;;;22.14;73.21;101715.06;4990529;28;9078;-69
2023/09/10 03:42:36;;;;;;;;;31.75;28.50;;;;;22.13;73.46;101716.16;5007163;28;8961;-70
2023/09/10 03:45:02;;;;;;;;;26.50;22.50;;;;;22.12;73.39;101714.44;4989673;28;8849;-70
2023/09/10 03:47:33;;;;;;;;;27.33;27.33;;;;;22.12;73.20;101718.03;4980613;28;8919;-69
2023/09/10 03:50:00;;;;;;;;;32.25;27.50;;;;;22.10;73.29;101709.22;5009742;28;8992;-69
2023/09/10 03:52:27;;;;;;;;;28.00;27.25;;;;;22.10;73.17;101716.63;4989873;28;8848;-69
2023/09/10 03:54:54;;;;;;;;;29.50;28.50;;;;;22.08;73.31;101719.63;4992391;28;8854;-69
2023/09/10 03:57:20;;;;;;;;;32.00;32.00;;;;;22.05;73.35;101709.16;4988736;28;8842;-69
2023/09/10 03:59:47;;;;;;;;;35.33;32.00;;;;;22.04;73.40;101712.13;4996104;28;8944;-69
2023/09/10 04:02:14;;;;;;;;;33.67;31.33;;;;;22.01;73.28;101715.38;4993527;28;9077;-69
2023/09/10 04:04:41;;;;;;;;;35.67;33.33;;;;;21.97;73.45;101707.66;4992678;28;9167;-69
2023/09/10 04:07:08;;;;;;;;;28.75;27.75;;;;;21.96;73.64;101711.47;5005783;28;9042;-69
2023/09/10 04:09:35;;;;;;;;;33.25;30.75;;;;;21.96;73.64;101702.44;5008123;28;8816;-69
2023/09/10 04:12:01;;;;;;;;;34.00;27.67;;;;;21.96;73.66;101700.50;4992095;28;8831;-69
2023/09/10 04:14:28;;;;;;;;;26.00;24.50;;;;;21.95;73.69;101698.00;5009194;28;8925;-69
2023/09/10 04:16:54;;;;;;;;;25.50;24.50;;;;;21.95;73.61;101698.00;4986743;28;8868;-70
2023/09/10 04:19:22;;;;;;;;;35.00;33.00;;;;;21.93;73.68;101701.00;5001765;28;8816;-70
2023/09/10 04:21:48;;;;;;;;;31.00;30.33;;;;;21.92;73.74;101701.25;4970630;28;9126;-69
2023/09/10 04:24:15;;;;;;;;;32.67;32.00;;;;;21.91;73.54;101705.06;4989390;28;9268;-69
2023/09/10 04:26:42;;;;;;;;;32.67;30.67;;;;;21.88;73.76;101711.06;4974523;28;9317;-70
2023/09/10 04:29:09;;;;;;;;;31.25;27.25;;;;;21.88;73.75;101705.59;4989669;28;8933;-69
2023/09/10 04:31:40;;;;;;;;;34.25;31.50;;;;;21.87;73.71;101709.38;4971365;28;8837;-70
2023/09/10 04:34:06;;;;;;;;;34.33;33.00;;;;;21.87;73.82;101712.13;4994028;28;8827;-69
2023/09/10 04:36:33;;;;;;;;;30.75;27.50;;;;;21.85;73.70;101714.28;5003599;28;9011;-69
2023/09/10 04:39:00;;;;;;;;;27.67;27.67;;;;;21.83;73.69;101713.69;4990471;28;8835;-70
2023/09/10 04:41:26;;;;;;;;;29.67;27.67;;;;;21.80;73.71;101701.34;4987469;28;8994;-69
2023/09/10 04:43:53;;;;;;;;;30.00;29.00;;;;;21.79;73.91;101707.03;4991093;28;9086;-69
2023/09/10 04:46:19;;;;;;;;;30.67;30.67;;;;;21.78;73.81;101716.34;4993125;28;8877;-69
2023/09/10 04:48:46;;;;;;;;;28.25;28.00;;;;;21.78;73.92;101716.34;4996241;28;9158;-69
2023/09/10 04:51:13;;;;;;;;;29.75;29.25;;;;;21.75;73.83;101709.44;4992477;28;8853;-70
2023/09/10 04:53:39;;;;;;;;;30.00;29.33;;;;;21.75;73.80;101711.38;5002332;28;8858;-69
2023/09/10 04:56:06;;;;;;;;;27.33;26.33;;;;;21.75;73.54;101709.44;4979871;28;8953;-70
2023/09/10 04:58:32;;;;;;;;;30.00;27.00;;;;;21.72;73.54;101708.06;5004083;28;9050;-70
2023/09/10 05:00:59;;;;;;;;;32.75;29.25;;;;;21.73;73.53;101714.38;4992115;28;8923;-69
2023/09/10 05:03:27;;;;;;;;;24.75;21.25;;;;;21.72;73.54;101721.75;4969607;28;8883;-70
2023/09/10 05:06:02;;;;;;;;;33.00;29.75;;;;;21.73;73.48;101722.59;5009357;28;8843;-70
2023/09/10 05:08:29;;;;;;;;;26.67;26.67;;;;;21.73;73.27;101728.91;4992211;28;8848;-69
2023/09/10 05:10:56;;;;;;;;;31.50;25.50;;;;;21.73;73.36;101722.59;5009919;28;8922;-70
2023/09/10 05:13:23;;;;;;;;;29.33;29.33;;;;;21.71;73.35;101717.38;4991405;28;8985;-70
2023/09/10 05:15:49;;;;;;;;;22.75;22.25;;;;;21.70;73.24;101723.06;5007073;28;9740;-69
2023/09/10 05:18:16;;;;;;;;;29.33;29.33;;;;;21.69;73.41;101716.75;5002622;28;8831;-70
2023/09/10 05:20:43;;;;;;;;;30.00;30.00;;;;;21.67;73.27;101718.94;4991188;28;9206;-70
2023/09/10 05:23:09;;;;;;;;;31.67;27.67;;;;;21.68;73.39;101717.03;4986259;28;8953;-70
2023/09/10 05:25:36;;;;;;;;;28.25;26.75;;;;;21.67;73.19;101718.94;4996043;28;9640;-70
2023/09/10 05:28:03;;;;;;;;;30.25;29.75;;;;;;;;4996043;28;8930;-70
2023/09/10 05:30:31;;;;;;;;;28.25;28.25;;;;;21.68;73.32;101730.72;4978904;28;8874;-69
2023/09/10 05:32:57;;;;;;;;;27.25;25.00;;;;;;;;4998095;28;8846;-69
2023/09/10 05:35:24;;;;;;;;;29.00;28.50;;;;;21.67;73.25;101721.69;4993996;28;9571;-69
2023/09/10 05:37:51;;;;;;;;;34.33;27.33;;;;;21.65;73.29;101723.81;4978778;28;8879;-69
2023/09/10 05:40:17;;;;;;;;;32.67;31.00;;;;;21.65;73.19;101726.56;5003451;28;8992;-69
2023/09/10 05:42:44;;;;;;;;;25.75;24.75;;;;;21.65;73.14;101720.25;5013195;28;8909;-70
2023/09/10 05:45:11;;;;;;;;;26.00;26.00;;;;;21.65;73.39;101723.00;4986867;28;9723;-70
2023/09/10 05:47:38;;;;;;;;;31.50;29.25;;;;;21.64;73.19;101719.41;4983321;28;8847;-70
2023/09/10 05:50:05;;;;;;;;;29.33;27.67;;;;;21.64;73.18;101729.56;4983567;28;8892;-69
2023/09/10 05:52:31;;;;;;;;;30.33;29.00;;;;;21.64;73.25;101732.28;5000761;28;9022;-69
2023/09/10 05:54:58;;;;;;;;;30.33;27.33;;;;;21.65;73.18;101734.78;4992377;28;8918;-70
2023/09/10 05:57:25;;;;;;;;;30.75;29.75;;;;;21.66;73.27;101733.69;4991602;28;8959;-68
2023/09/10 05:59:51;;;;;;;;;29.00;26.25;;;;;21.69;72.85;101733.22;4992099;28;8892;-70
2023/09/10 06:02:18;;;;;;;;;31.25;28.50;;;;;21.69;73.10;101730.47;4989471;28;8854;-70
2023/09/10 06:04:44;;;;;;;;;26.25;24.50;;;;;21.70;73.22;101731.28;4993879;28;8824;-70
2023/09/10 06:07:11;;;;;;;;;22.25;21.00;;;;;21.72;72.91;101735.47;4994796;28;8954;-69
2023/09/10 06:09:38;;;;;;;;;21.00;21.00;;;;;21.72;73.25;101735.47;4991929;28;8856;-69
2023/09/10 06:12:05;;;;;;;;;23.50;21.75;;;;;21.75;72.82;101733.28;4981690;28;8847;-69
2023/09/10 06:14:34;;;;;;;;;25.50;23.50;;;;;21.76;72.78;101741.28;5005649;28;8859;-69
2023/09/10 06:17:02;;;;;;;;;19.50;19.50;;;;;21.79;72.90;101737.19;4991443;28;8843;-69
2023/09/10 06:19:29;;;;;;;;;24.25;23.75;;;;;21.81;72.67;101746.03;4996845;28;8831;-69
2023/09/10 06:21:55;;;;;;;;;22.75;21.75;;;;;21.79;72.58;101743.50;4993837;28;8850;-69
2023/09/10 06:24:22;;;;;;;;;28.25;24.50;;;;;21.79;72.88;101745.41;4991588;28;8827;-68
2023/09/10 06:26:48;;;;;;;;;22.25;21.75;;;;;21.78;72.57;101744.59;4992370;28;8859;-69
2023/09/10 06:29:15;;;;;;;;;22.75;21.75;;;;;21.78;72.77;101752.81;4992149;28;8808;-69
2023/09/10 06:31:41;;;;;;;;;23.75;22.25;;;;;21.80;72.83;101755.31;4986572;28;8845;-69
2023/09/10 06:34:08;;;;;;;;;21.25;19.00;;;;;21.85;72.86;101747.19;5005071;28;8857;-69
2023/09/10 06:36:35;;;;;;;;;25.50;24.50;;;;;21.88;72.67;101750.28;4983852;28;8839;-69
2023/09/10 06:39:03;;;;;;;;;29.25;25.75;;;;;21.91;72.48;101751.66;4990921;28;8836;-69
2023/09/10 06:41:30;;;;;;;;;26.00;26.00;;;;;21.94;72.32;101746.53;5006027;28;8843;-69
2023/09/10 06:43:59;;;;;;;;;25.50;25.50;;;;;21.97;72.15;101753.44;5002435;28;8853;-69
2023/09/10 06:46:27;;;;;;;;;28.00;26.50;;;;;21.97;72.36;101754.25;4988521;28;8839;-70
2023/09/10 06:48:54;;;;;;;;;20.50;20.50;;;;;22.03;72.34;101754.34;5008267;28;9833;-69
2023/09/10 06:51:20;;;;;;;;;31.00;31.00;;;;;22.07;72.17;101759.06;5007439;28;8827;-69
2023/09/10 06:53:47;;;;;;;;;27.75;27.50;;;;;22.08;72.07;101757.16;5011093;28;8843;-69
2023/09/10 06:56:13;;;;;;;;;27.25;26.50;;;;;22.08;72.02;101744.31;4988092;28;9014;-70
2023/09/10 06:58:40;;;;;;;;;29.33;28.33;;;;;22.09;71.81;101745.97;5011683;28;8851;-70
2023/09/10 07:01:08;;;;;;;;;29.00;26.00;;;;;22.14;71.72;101750.72;5003791;28;9055;-70
2023/09/10 07:03:37;;;;;;;;;34.33;31.67;;;;;22.16;71.73;101743.91;5007118;28;8839;-69
2023/09/10 07:06:05;;;;;;;;;37.33;36.33;;;;;22.19;71.76;101753.53;5001251;28;9184;-70
2023/09/10 07:08:32;;;;;;;;;27.75;25.50;;;;;22.19;71.92;101754.38;4992193;28;9072;-70
2023/09/10 07:10:58;;;;;;;;;31.00;29.33;;;;;22.20;71.80;101761.53;4993948;28;8917;-69
2023/09/10 07:13:25;;;;;;;;;27.50;26.25;;;;;22.20;71.86;101757.94;5010077;28;9015;-70
2023/09/10 07:15:52;;;;;;;;;34.00;30.33;;;;;22.21;71.67;101752.22;5007171;28;8839;-69
2023/09/10 07:18:18;;;;;;;;;31.75;30.00;;;;;22.26;71.99;101753.38;5009145;28;9015;-69
2023/09/10 07:20:45;;;;;;;;;26.00;25.00;;;;;22.27;72.00;101755.88;5002452;28;8907;-70
2023/09/10 07:23:11;;;;;;;;;31.67;28.33;;;;;22.33;71.80;101759.53;4983932;28;8817;-70
2023/09/10 07:25:39;;;;;;;;;24.25;23.50;;;;;22.38;71.75;101760.44;5007393;28;8943;-70
2023/09/10 07:28:06;;;;;;;;;25.75;25.75;;;;;22.41;71.54;101762.69;5007201;28;8878;-70
2023/09/10 07:30:32;;;;;;;;;25.25;24.00;;;;;22.46;71.43;101761.94;4995057;28;8826;-71
2023/09/10 07:32:59;;;;;;;;;24.00;24.00;;;;;22.48;71.66;101757.00;5009208;28;8843;-70
2023/09/10 07:35:27;;;;;;;;;23.50;23.50;;;;;22.53;71.32;101754.34;5007346;28;8917;-70
2023/09/10 07:37:54;;;;;;;;;26.25;23.75;;;;;22.58;71.28;101756.34;5009742;28;8859;-70
2023/09/10 07:40:21;;;;;;;;;33.33;31.00;;;;;22.58;71.11;101757.16;4995351;28;8909;-70
2023/09/10 07:42:48;;;;;;;;;32.67;31.00;;;;;22.62;71.19;101758.31;5010430;28;9110;-70
2023/09/10 07:45:14;;;;;;;;;44.67;38.00;;;;;22.63;71.23;101759.97;5010525;28;9064;-70
2023/09/10 07:47:41;;;;;;;;;33.67;31.33;;;;;22.67;71.21;101765.78;4992805;28;9526;-70
2023/09/10 07:50:08;;;;;;;;;30.00;27.50;;;;;22.74;71.25;101760.97;5006015;28;9053;-70
2023/09/10 07:52:35;;;;;;;;;27.00;27.00;;;;;22.80;71.02;101759.94;4992851;28;8854;-70
2023/09/10 07:55:01;;;;;;;;;29.25;29.25;;;;;22.85;71.14;101765.50;5006434;28;8886;-70
2023/09/10 07:57:28;;;;;;;;;37.67;36.33;;;;;22.87;71.22;101765.25;5000516;28;8833;-70
2023/09/10 07:59:54;;;;;;;;;36.75;29.75;;;;;22.90;70.86;101762.00;5008054;28;8964;-70
2023/09/10 08:02:26;;;;;;;;;33.25;30.50;;;;;22.96;71.03;101763.75;4998083;28;8846;-71
2023/09/10 08:04:53;;;;;;;;;29.75;28.50;;;;;23.02;71.12;101765.50;5004403;28;8843;-70
2023/09/10 08:07:20;;;;;;;;;33.00;32.00;;;;;23.06;70.70;101763.88;4980752;28;8907;-70
2023/09/10 08:09:46;;;;;;;;;28.50;28.00;;;;;23.09;70.41;101768.88;5001748;28;8953;-70
2023/09/10 08:12:13;;;;;;;;;34.25;33.25;;;;;23.15;70.65;101769.75;5010572;28;8823;-71
2023/09/10 08:14:41;;;;;;;;;43.33;40.00;;;;;23.18;70.59;101772.84;5005653;28;8885;-71
2023/09/10 08:17:07;;;;;;;;;31.00;30.00;;;;;23.24;70.17;101770.97;5007789;28;9178;-71
2023/09/10 08:19:34;;;;;;;;;31.50;30.00;;;;;23.31;70.23;101770.78;5007570;28;8831;-71
2023/09/10 08:22:00;;;;;;;;;44.67;37.00;;;;;23.33;70.23;101765.84;4999565;28;8840;-71
2023/09/10 08:24:27;;;;;;;;;35.75;33.25;;;;;23.38;70.04;101768.66;5010010;28;8986;-71
2023/09/10 08:26:53;;;;;;;;;37.00;35.00;;;;;23.41;69.92;101762.63;5009681;28;8859;-71
2023/09/10 08:29:20;;;;;;;;;29.25;29.25;;;;;23.45;69.75;101767.34;5010027;28;9000;-71
2023/09/10 08:31:46;;;;;;;;;37.00;34.33;;;;;23.52;69.49;101772.66;5009766;28;8915;-70
2023/09/10 08:34:13;;;;;;;;;30.25;30.25;;;;;23.58;69.74;101759.81;5009068;28;9016;-72
2023/09/10 08:36:39;;;;;;;;;26.50;26.00;;;;;23.63;69.67;101757.94;4973572;28;8871;-70
2023/09/10 08:39:05;;;;;;;;;28.00;27.50;;;;;23.67;69.74;101758.28;4992825;28;8842;-72
2023/09/10 08:41:40;;;;;;;;;34.75;33.50;;;;;23.73;69.68;101750.91;5005603;28;8859;-70
2023/09/10 08:44:09;;;;;;;;;29.75;28.50;;;;;23.77;69.51;101750.13;5004150;28;8901;-71
2023/09/10 08:46:36;;;;;;;;;29.75;29.75;;;;;23.82;69.43;101752.09;4994466;28;8816;-71
2023/09/10 08:49:04;;;;;;;;;33.75;32.00;;;;;23.83;69.33;101751.03;5007037;28;8893;-71
2023/09/10 08:51:32;;;;;;;;;29.00;29.00;;;;;23.88;69.07;101756.56;5006188;28;8888;-71
2023/09/10 08:54:01;;;;;;;;;30.50;29.75;;;;;23.93;69.12;101753.84;5012765;28;8835;-71
2023/09/10 08:56:29;;;;;;;;;36.25;33.50;;;;;23.98;69.07;101753.88;5012710;28;8854;-71
2023/09/10 08:58:56;;;;;;;;;30.75;30.00;;;;;24.05;69.04;101753.69;5011725;28;8974;-70
2023/09/10 09:01:24;;;;;;;;;36.67;34.33;;;;;24.08;68.88;101753.16;5012168;28;9554;-71
2023/09/10 09:03:51;;;;;;;;;29.75;28.75;;;;;24.12;68.33;101748.78;4998948;28;8897;-70
2023/09/10 09:06:18;;;;;;;;;33.75;33.00;;;;;24.16;67.96;101750.75;4994645;28;8851;-70
2023/09/10 09:08:49;;;;;;;;;43.50;36.25;;;;;24.17;67.72;101749.66;4994364;28;8855;-70
2023/09/10 09:11:17;;;;;;;;;34.25;34.00;;;;;24.24;67.30;101749.44;5009208;28;8840;-71
2023/09/10 09:13:48;;;;;;;;;34.50;31.75;;;;;24.30;67.23;101751.13;4993401;28;8914;-70
2023/09/10 09:16:15;;;;;;;;;34.00;31.25;;;;;24.35;67.18;101748.41;4989384;28;8956;-71
2023/09/10 09:18:44;;;;;;;;;31.00;29.50;;;;;24.42;66.94;101742.69;5009799;28;8846;-70
2023/09/10 09:21:16;;;;;;;;;30.75;30.00;;;;;24.48;67.11;101743.59;4995303;28;8847;-71
2023/09/10 09:23:58;;;;;;;;;42.75;36.00;;;;;24.58;66.43;101738.13;5006522;28;8940;-71
2023/09/10 09:26:29;;;;;;;;;33.25;32.00;;;;;24.60;66.50;101735.94;5006420;28;8914;-71
2023/09/10 09:28:56;;;;;;;;;31.00;31.00;;;;;24.62;66.61;101739.25;5011311;28;8843;-71
2023/09/10 09:31:24;;;;;;;;;35.25;31.50;;;;;24.63;66.16;101736.25;5012346;28;8819;-71
2023/09/10 09:33:52;;;;;;;;;29.00;28.25;;;;;24.72;66.10;101733.00;5013475;28;8847;-71
2023/09/10 09:36:18;;;;;;;;;26.00;24.25;;;;;24.76;66.17;101734.94;5010323;28;8866;-70
2023/09/10 09:38:49;;;;;;;;;33.50;32.50;;;;;24.76;65.92;101737.69;5008920;28;8865;-70
2023/09/10 09:41:17;;;;;;;;;28.00;25.25;;;;;24.76;66.06;101736.88;5002268;28;9327;-71
2023/09/10 09:43:44;;;;;;;;;32.75;30.50;;;;;24.76;66.28;101734.94;5010667;28;8845;-70
2023/09/10 09:46:10;;;;;;;;;34.75;32.50;;;;;24.75;66.10;101735.19;5011764;28;8827;-70
2023/09/10 09:48:37;;;;;;;;;32.50;29.25;;;;;24.84;66.50;101734.44;5009498;28;8859;-71
2023/09/10 09:51:05;;;;;;;;;33.75;33.25;;;;;24.96;65.98;101733.38;5008840;28;8850;-70
2023/09/10 09:53:33;;;;;;;;;29.25;29.25;;;;;25.06;65.57;101731.47;5004925;28;8881;-70
2023/09/10 09:56:01;;;;;;;;;29.00;29.00;;;;;25.13;65.51;101731.25;5008686;28;8835;-69
2023/09/10 09:58:30;;;;;;;;;25.75;25.75;;;;;25.20;64.74;101725.47;5011641;28;8839;-69
2023/09/10 10:00:58;;;;;;;;;29.25;29.25;;;;;25.24;64.83;101719.19;5011572;28;8831;-69
2023/09/10 10:03:25;;;;;;;;;32.00;29.00;;;;;25.31;64.65;101729.94;5003927;28;8861;-69
2023/09/10 10:05:53;;;;;;;;;30.75;28.50;;;;;25.35;64.63;101720.03;4982601;28;9013;-69
2023/09/10 10:08:25;;;;;;;;;28.00;26.25;;;;;25.37;64.57;101715.91;4999154;28;8931;-68
2023/09/10 10:10:51;;;;;;;;;32.25;31.75;;;;;25.42;64.49;101723.34;5004299;28;8867;-68
2023/09/10 10:13:23;;;;;;;;;33.00;31.25;;;;;25.49;64.18;101720.34;4990416;28;8994;-69
2023/09/10 10:15:53;;;;;;;;;27.00;25.25;;;;;25.55;63.93;101716.47;5001258;28;8860;-69
2023/09/10 10:18:21;;;;;;;;;28.25;27.50;;;;;25.60;64.02;101708.19;5011872;28;8835;-68
2023/09/10 10:20:49;;;;;;;;;30.00;29.50;;;;;25.66;63.71;101712.63;5009777;28;8835;-68
2023/09/10 10:23:17;;;;;;;;;32.00;31.00;;;;;25.69;63.24;101717.59;5010926;28;8855;-69
2023/09/10 10:25:52;;;;;;;;;29.50;29.50;;;;;25.77;63.41;101713.47;5011906;28;8823;-69
2023/09/10 10:28:20;;;;;;;;;25.50;25.50;;;;;25.82;63.17;101711.56;4994404;28;8839;-69
2023/09/10 10:31:04;;;;;;;;;28.25;26.00;;;;;25.89;62.72;101712.13;5010361;28;8889;-69
2023/09/10 10:33:33;;;;;;;;;25.25;23.00;;;;;25.86;62.76;101698.88;4994388;28;8839;-70
2023/09/10 10:36:07;;;;;;;;;23.50;23.25;;;;;25.93;62.43;101704.13;4998438;28;8829;-70
2023/09/10 10:38:36;;;;;;;;;21.75;21.25;;;;;25.94;62.64;101708.53;5002167;28;8844;-70
2023/09/10 10:41:11;;;;;;;;;24.50;21.25;;;;;25.95;62.41;101701.91;5011615;28;8855;-71
2023/09/10 10:43:45;;;;;;;;;23.00;21.25;;;;;25.97;62.43;101708.00;5010592;28;8823;-71
2023/09/10 10:46:13;;;;;;;;;23.75;22.25;;;;;25.97;62.05;101696.09;5007713;28;9241;-69
2023/09/10 10:48:41;;;;;;;;;23.00;22.25;;;;;26.02;62.36;101696.13;4997018;28;8869;-70
2023/09/10 10:51:10;;;;;;;;;21.25;21.00;;;;;26.06;61.71;101698.03;5001731;28;8831;-69
2023/09/10 10:53:37;;;;;;;;;19.25;19.25;;;;;26.08;62.09;101693.06;4992343;28;8839;-69
2023/09/10 10:56:05;;;;;;;;;23.25;23.00;;;;;26.14;61.93;101691.97;5001955;28;8855;-71
2023/09/10 10:58:34;;;;;;;;;23.00;23.00;;;;;26.15;62.25;101690.03;4993371;28;8873;-70
2023/09/10 11:01:01;;;;;;;;;17.25;17.25;;;;;26.18;61.85;101692.25;5009381;28;8832;-70
2023/09/10 11:03:28;;;;;;;;;16.00;16.00;;;;;26.22;61.82;101687.00;5009562;28;8974;-70
2023/09/10 11:05:54;;;;;;;;;19.00;17.75;;;;;26.25;62.38;101691.94;4989035;28;8850;-69
2023/09/10 11:08:24;;;;;;;;;18.25;18.25;;;;;26.24;61.98;101690.28;5003106;28;8839;-70
2023/09/10 11:10:51;;;;;;;;;17.50;17.00;;;;;26.24;61.70;101687.53;5010801;28;8863;-70
2023/09/10 11:13:18;;;;;;;;;17.50;17.25;;;;;26.27;61.68;101684.22;4991840;28;8861;-70
2023/09/10 11:16:03;;;;;;;;;18.75;18.00;;;;;26.29;61.60;101684.75;4991631;28;8916;-70
2023/09/10 11:18:36;;;;;;;;;19.50;18.50;;;;;26.31;61.33;101680.59;4990146;28;8842;-70
2023/09/10 11:21:04;;;;;;;;;17.25;17.25;;;;;26.34;61.46;101682.00;4992885;28;8985;-70